createdAt,value
2024-03-12T00:00:16.788Z,177.62
2024-03-12T00:01:16.840Z,178.64
2024-03-12T00:02:16.732Z,178.14
2024-03-12T00:03:16.737Z,177.62
2024-03-12T00:04:16.758Z,181.24
2024-03-12T00:05:16.732Z,176.49
2024-03-12T00:06:16.732Z,178.04
2024-03-12T00:07:16.810Z,178.36
2024-03-12T00:08:16.759Z,179.36
2024-03-12T00:09:16.742Z,176.41
2024-03-12T00:10:16.942Z,178.83
2024-03-12T00:11:16.763Z,176.56
2024-03-12T00:12:16.765Z,178.40
2024-03-12T00:13:16.749Z,176.87
2024-03-12T00:14:16.757Z,178.14
2024-03-12T00:15:16.769Z,174.47
2024-03-12T00:16:16.787Z,177.16
2024-03-12T00:17:16.764Z,177.55
2024-03-12T00:18:16.769Z,174.42
2024-03-12T00:19:16.774Z,175.99
2024-03-12T00:20:17.686Z,178.69
2024-03-12T00:21:16.793Z,177.13
2024-03-12T00:22:16.759Z,176.65
2024-03-12T00:23:16.766Z,177.62
2024-03-12T00:24:16.772Z,175.91
2024-03-12T00:25:16.755Z,177.08
2024-03-12T00:26:16.771Z,174.59
2024-03-12T00:27:16.758Z,173.97
2024-03-12T00:28:16.777Z,176.64
2024-03-12T00:29:16.779Z,176.77
2024-03-12T00:30:16.763Z,179.25
2024-03-12T00:31:16.766Z,175.65
2024-03-12T00:32:16.773Z,175.93
2024-03-12T00:33:16.812Z,175.64
2024-03-12T00:34:16.807Z,177.00
2024-03-12T00:35:16.823Z,174.70
2024-03-12T00:36:16.792Z,172.94
2024-03-12T00:37:16.785Z,175.15
2024-03-12T00:38:16.809Z,179.85
2024-03-12T00:39:16.794Z,174.81
2024-03-12T00:40:16.907Z,174.86
2024-03-12T00:41:16.798Z,177.24
2024-03-12T00:42:16.806Z,177.16
2024-03-12T00:43:16.810Z,174.71
2024-03-12T00:44:16.881Z,179.80
2024-03-12T00:45:16.796Z,179.28
2024-03-12T00:46:16.842Z,172.88
2024-03-12T00:47:16.808Z,175.42
2024-03-12T00:48:16.805Z,173.47
2024-03-12T00:49:16.823Z,172.20
2024-03-12T00:50:16.832Z,171.19
2024-03-12T00:51:16.799Z,174.92
2024-03-12T00:52:16.815Z,174.15
2024-03-12T00:53:16.799Z,173.02
2024-03-12T00:54:16.805Z,173.64
2024-03-12T00:55:16.806Z,172.44
2024-03-12T00:56:16.812Z,172.50
2024-03-12T00:57:16.802Z,172.98
2024-03-12T00:58:16.840Z,172.36
2024-03-12T00:59:16.807Z,173.16
2024-03-12T01:00:16.826Z,173.45
2024-03-12T01:01:17.001Z,171.62
2024-03-12T01:02:16.909Z,172.44
2024-03-12T01:03:16.912Z,173.53
2024-03-12T01:04:16.949Z,172.91
2024-03-12T01:05:16.994Z,174.17
2024-03-12T01:06:17.014Z,172.38
2024-03-12T01:07:17.012Z,172.66
2024-03-12T01:08:17.106Z,173.55
2024-03-12T01:09:17.083Z,175.21
2024-03-12T01:10:17.077Z,174.20
2024-03-12T01:11:17.166Z,171.90
2024-03-12T01:12:17.103Z,174.05
2024-03-12T01:13:17.177Z,174.16
2024-03-12T01:14:17.194Z,173.09
2024-03-12T01:15:17.258Z,175.43
2024-03-12T01:16:17.331Z,175.89
2024-03-12T01:17:17.256Z,173.59
2024-03-12T01:18:17.372Z,174.52
2024-03-12T01:19:17.283Z,175.80
2024-03-12T01:20:17.335Z,174.60
2024-03-12T01:21:17.476Z,173.73
2024-03-12T01:22:17.398Z,172.28
2024-03-12T01:23:17.416Z,174.85
2024-03-12T01:24:17.453Z,173.57
2024-03-12T01:25:17.496Z,175.97
2024-03-12T01:26:17.518Z,174.92
2024-03-12T01:27:17.564Z,174.39
2024-03-12T01:28:17.673Z,172.54
2024-03-12T01:29:17.677Z,175.14
2024-03-12T01:30:17.953Z,174.36
2024-03-12T01:31:17.892Z,175.02
2024-03-12T01:32:17.877Z,173.23
2024-03-12T01:33:17.931Z,173.98
2024-03-12T01:34:17.997Z,173.32
2024-03-12T01:35:18.065Z,175.45
2024-03-12T01:36:18.117Z,173.81
2024-03-12T01:37:18.185Z,174.16
2024-03-12T01:38:18.258Z,174.56
2024-03-12T01:39:18.327Z,174.29
2024-03-12T01:40:18.405Z,173.94
2024-03-12T01:41:18.467Z,175.41
2024-03-12T01:42:18.531Z,173.80
2024-03-12T01:43:18.651Z,174.78
2024-03-12T01:44:18.664Z,174.50
2024-03-12T01:45:18.699Z,175.04
2024-03-12T01:46:18.753Z,173.80
2024-03-12T01:47:18.802Z,173.96
2024-03-12T01:48:18.867Z,173.76
2024-03-12T01:49:18.939Z,173.35
2024-03-12T01:50:19.008Z,175.75
2024-03-12T01:51:19.017Z,175.85
2024-03-12T01:52:19.097Z,174.16
2024-03-12T01:53:19.121Z,173.16
2024-03-12T01:54:19.171Z,174.24
2024-03-12T01:55:22.510Z,171.23
2024-03-12T01:56:19.223Z,174.51
2024-03-12T01:57:19.210Z,172.79
2024-03-12T01:58:19.231Z,172.20
2024-03-12T01:59:19.219Z,175.12
2024-03-12T02:00:19.218Z,176.45
2024-03-12T02:01:19.265Z,174.75
2024-03-12T02:02:19.231Z,174.43
2024-03-12T02:03:19.209Z,176.46
2024-03-12T02:04:19.225Z,174.16
2024-03-12T02:05:19.227Z,175.23
2024-03-12T02:06:19.228Z,173.95
2024-03-12T02:07:19.221Z,175.11
2024-03-12T02:08:19.248Z,172.93
2024-03-12T02:09:19.228Z,172.89
2024-03-12T02:10:19.226Z,173.59
2024-03-12T02:11:19.276Z,175.17
2024-03-12T02:12:19.229Z,174.80
2024-03-12T02:13:19.252Z,174.55
2024-03-12T02:14:19.224Z,173.65
2024-03-12T02:15:19.491Z,173.14
2024-03-12T02:16:19.248Z,175.10
2024-03-12T02:17:19.225Z,173.74
2024-03-12T02:18:19.292Z,172.63
2024-03-12T02:19:19.234Z,173.29
2024-03-12T02:20:19.238Z,173.14
2024-03-12T02:21:19.226Z,173.59
2024-03-12T02:22:19.239Z,171.57
2024-03-12T02:23:19.227Z,173.92
2024-03-12T02:24:19.251Z,174.91
2024-03-12T02:25:19.247Z,174.03
2024-03-12T02:26:19.250Z,172.84
2024-03-12T02:27:19.244Z,173.64
2024-03-12T02:28:19.245Z,173.75
2024-03-12T02:29:19.239Z,173.35
2024-03-12T02:30:19.370Z,170.55
2024-03-12T02:31:19.263Z,173.11
2024-03-12T02:32:19.256Z,172.57
2024-03-12T02:33:19.310Z,174.69
2024-03-12T02:34:19.270Z,173.60
2024-03-12T02:35:19.239Z,172.19
2024-03-12T02:36:19.254Z,172.88
2024-03-12T02:37:19.245Z,173.59
2024-03-12T02:38:19.273Z,173.47
2024-03-12T02:39:19.258Z,172.22
2024-03-12T02:40:19.530Z,172.14
2024-03-12T02:41:19.273Z,174.45
2024-03-12T02:42:19.264Z,173.56
2024-03-12T02:43:19.257Z,173.21
2024-03-12T02:44:19.265Z,174.43
2024-03-12T02:45:19.252Z,171.96
2024-03-12T02:46:19.278Z,173.25
2024-03-12T02:47:19.259Z,173.30
2024-03-12T02:48:19.324Z,173.04
2024-03-12T02:49:19.269Z,172.70
2024-03-12T02:50:19.278Z,172.16
2024-03-12T02:51:19.281Z,171.72
2024-03-12T02:52:19.310Z,172.64
2024-03-12T02:53:19.330Z,172.87
2024-03-12T02:54:19.375Z,172.75
2024-03-12T02:55:19.382Z,169.93
2024-03-12T02:56:19.424Z,170.58
2024-03-12T02:57:19.456Z,170.84
2024-03-12T02:58:19.500Z,169.96
2024-03-12T02:59:19.514Z,170.99
2024-03-12T03:00:19.577Z,172.09
2024-03-12T03:01:19.654Z,170.12
2024-03-12T03:02:19.626Z,174.14
2024-03-12T03:03:19.617Z,174.62
2024-03-12T03:04:19.664Z,170.63
2024-03-12T03:05:19.684Z,173.34
2024-03-12T03:06:19.711Z,172.05
2024-03-12T03:07:19.742Z,170.90
2024-03-12T03:08:19.772Z,171.32
2024-03-12T03:09:19.781Z,171.07
2024-03-12T03:10:19.839Z,170.23
2024-03-12T03:11:19.865Z,171.14
2024-03-12T03:12:19.830Z,171.57
2024-03-12T03:13:19.850Z,170.22
2024-03-12T03:14:19.886Z,171.26
2024-03-12T03:15:19.896Z,171.25
2024-03-12T03:16:19.938Z,169.47
2024-03-12T03:17:19.929Z,171.55
2024-03-12T03:18:19.971Z,170.65
2024-03-12T03:19:19.983Z,170.09
2024-03-12T03:20:20.004Z,171.20
2024-03-12T03:21:20.019Z,169.64
2024-03-12T03:22:20.019Z,170.44
2024-03-12T03:23:20.055Z,169.92
2024-03-12T03:24:20.075Z,168.35
2024-03-12T03:25:20.154Z,168.73
2024-03-12T03:26:20.107Z,168.35
2024-03-12T03:27:20.104Z,169.05
2024-03-12T03:28:20.100Z,170.71
2024-03-12T03:29:20.134Z,168.75
2024-03-12T03:30:20.574Z,169.99
2024-03-12T03:31:20.147Z,168.61
2024-03-12T03:32:20.168Z,168.08
2024-03-12T03:33:20.186Z,169.50
2024-03-12T03:34:20.380Z,167.72
2024-03-12T03:35:20.265Z,168.39
2024-03-12T03:36:20.269Z,168.75
2024-03-12T03:37:20.258Z,169.68
2024-03-12T03:38:20.277Z,168.89
2024-03-12T03:39:20.300Z,167.99
2024-03-12T03:40:20.428Z,167.51
2024-03-12T03:41:20.328Z,168.07
2024-03-12T03:42:20.354Z,168.88
2024-03-12T03:43:20.358Z,168.86
2024-03-12T03:44:20.401Z,169.57
2024-03-12T03:45:20.440Z,168.14
2024-03-12T03:46:20.437Z,167.71
2024-03-12T03:47:20.439Z,169.11
2024-03-12T03:48:20.457Z,172.71
2024-03-12T03:49:20.478Z,169.96
2024-03-12T03:50:20.460Z,167.70
2024-03-12T03:51:20.494Z,169.50
2024-03-12T03:52:20.503Z,167.70
2024-03-12T03:53:20.512Z,169.36
2024-03-12T03:54:20.527Z,166.92
2024-03-12T03:55:20.559Z,168.96
2024-03-12T03:56:20.560Z,168.47
2024-03-12T03:57:20.681Z,167.49
2024-03-12T03:58:20.600Z,168.04
2024-03-12T03:59:20.654Z,166.93
2024-03-12T04:00:20.624Z,167.38
2024-03-12T04:01:20.804Z,165.89
2024-03-12T04:02:20.701Z,166.48
2024-03-12T04:03:20.716Z,165.88
2024-03-12T04:04:20.760Z,167.58
2024-03-12T04:05:20.743Z,166.18
2024-03-12T04:06:20.752Z,166.92
2024-03-12T04:07:20.861Z,166.38
2024-03-12T04:08:20.774Z,165.48
2024-03-12T04:09:20.836Z,164.67
2024-03-12T04:10:20.844Z,167.54
2024-03-12T04:11:20.894Z,167.57
2024-03-12T04:12:20.884Z,166.13
2024-03-12T04:13:20.961Z,166.48
2024-03-12T04:14:20.954Z,165.57
2024-03-12T04:15:20.980Z,166.35
2024-03-12T04:16:20.995Z,165.21
2024-03-12T04:17:21.085Z,165.61
2024-03-12T04:18:21.041Z,165.09
2024-03-12T04:19:21.057Z,166.15
2024-03-12T04:20:21.053Z,166.50
2024-03-12T04:21:21.063Z,166.90
2024-03-12T04:22:21.078Z,167.67
2024-03-12T04:23:21.150Z,166.69
2024-03-12T04:24:21.106Z,167.87
2024-03-12T04:25:21.141Z,167.89
2024-03-12T04:26:21.181Z,165.60
2024-03-12T04:27:21.170Z,166.25
2024-03-12T04:28:21.151Z,166.55
2024-03-12T04:29:21.168Z,166.87
2024-03-12T04:30:21.194Z,164.23
2024-03-12T04:31:21.217Z,166.00
2024-03-12T04:32:21.224Z,166.33
2024-03-12T04:33:21.373Z,166.79
2024-03-12T04:34:21.263Z,165.82
2024-03-12T04:35:21.305Z,165.10
2024-03-12T04:36:21.299Z,166.18
2024-03-12T04:37:21.329Z,165.50
2024-03-12T04:38:21.336Z,164.91
2024-03-12T04:39:21.370Z,167.65
2024-03-12T04:40:29.007Z,50.00
2024-03-12T04:41:28.926Z,50.00
2024-03-12T04:42:28.970Z,50.00
2024-03-12T04:43:28.970Z,50.00
2024-03-12T04:44:28.924Z,50.00
2024-03-12T04:45:28.944Z,50.03
2024-03-12T04:46:28.928Z,52.24
2024-03-12T04:47:28.950Z,51.74
2024-03-12T04:48:29.002Z,50.54
2024-03-12T04:49:28.922Z,52.12
2024-03-12T04:50:28.912Z,53.46
2024-03-12T04:51:28.948Z,50.58
2024-03-12T04:52:28.911Z,50.00
2024-03-12T04:53:28.925Z,52.38
2024-03-12T04:54:28.964Z,52.06
2024-03-12T04:55:28.923Z,51.95
2024-03-12T04:56:28.919Z,50.00
2024-03-12T04:57:28.941Z,52.32
2024-03-12T04:58:28.919Z,53.65
2024-03-12T04:59:28.937Z,51.36
2024-03-12T05:00:31.452Z,52.91
2024-03-12T05:01:28.994Z,53.56
2024-03-12T05:02:28.925Z,50.32
2024-03-12T05:03:28.995Z,52.21
2024-03-12T05:04:29.003Z,51.25
2024-03-12T05:05:28.960Z,51.09
2024-03-12T05:06:29.006Z,51.25
2024-03-12T05:07:28.946Z,53.13
2024-03-12T05:08:29.165Z,51.89
2024-03-12T05:09:28.974Z,52.66
2024-03-12T05:10:28.950Z,52.05
2024-03-12T05:11:28.982Z,52.45
2024-03-12T05:12:28.968Z,53.82
2024-03-12T05:13:28.973Z,55.41
2024-03-12T05:14:28.967Z,53.81
2024-03-12T05:15:29.064Z,52.54
2024-03-12T05:16:28.962Z,53.89
2024-03-12T05:17:28.965Z,52.90
2024-03-12T05:18:28.993Z,52.58
2024-03-12T05:19:28.974Z,53.51
2024-03-12T05:20:28.974Z,55.30
2024-03-12T05:21:31.857Z,54.23
2024-03-12T05:22:28.973Z,54.27
2024-03-12T05:23:28.973Z,54.49
2024-03-12T05:24:28.987Z,53.72
2024-03-12T05:25:28.983Z,54.86
2024-03-12T05:26:28.989Z,56.32
2024-03-12T05:27:29.049Z,56.22
2024-03-12T05:28:28.975Z,56.65
2024-03-12T05:29:28.988Z,54.16
2024-03-12T05:30:28.998Z,55.88
2024-03-12T05:31:28.990Z,54.49
2024-03-12T05:32:28.979Z,54.66
2024-03-12T05:33:29.004Z,53.80
2024-03-12T05:34:28.994Z,54.41
2024-03-12T05:35:28.992Z,55.08
2024-03-12T05:36:29.014Z,54.34
2024-03-12T05:37:29.031Z,55.23
2024-03-12T05:38:28.995Z,52.73
2024-03-12T05:39:29.036Z,54.11
2024-03-12T05:40:29.007Z,52.36
2024-03-12T05:41:29.015Z,56.28
2024-03-12T05:42:29.008Z,53.91
2024-03-12T05:43:29.010Z,54.73
2024-03-12T05:44:29.002Z,53.43
2024-03-12T05:45:29.167Z,52.89
2024-03-12T05:46:29.157Z,54.69
2024-03-12T05:47:29.058Z,52.94
2024-03-12T05:48:29.100Z,52.72
2024-03-12T05:49:29.028Z,52.22
2024-03-12T05:50:29.015Z,55.08
2024-03-12T05:51:29.055Z,52.67
2024-03-12T05:52:29.124Z,52.77
2024-03-12T05:53:29.034Z,52.02
2024-03-12T05:54:29.051Z,51.54
2024-03-12T05:55:29.105Z,54.39
2024-03-12T05:56:29.020Z,51.13
2024-03-12T05:57:29.026Z,51.15
2024-03-12T05:58:29.047Z,52.15
2024-03-12T05:59:29.043Z,53.08
2024-03-12T06:00:29.049Z,50.75
2024-03-12T06:01:30.163Z,51.29
2024-03-12T06:02:29.025Z,51.45
2024-03-12T06:03:29.087Z,51.54
2024-03-12T06:04:29.068Z,55.06
2024-03-12T06:05:29.050Z,53.34
2024-03-12T06:06:29.083Z,52.03
2024-03-12T06:07:29.121Z,53.10
2024-03-12T06:08:29.138Z,51.92
2024-03-12T06:09:29.054Z,53.73
2024-03-12T06:10:29.063Z,51.62
2024-03-12T06:11:29.089Z,52.70
2024-03-12T06:12:29.105Z,55.26
2024-03-12T06:13:29.100Z,51.95
2024-03-12T06:14:29.137Z,51.73
2024-03-12T06:15:29.210Z,52.74
2024-03-12T06:16:29.219Z,51.00
2024-03-12T06:17:29.293Z,52.99
2024-03-12T06:18:29.671Z,53.71
2024-03-12T06:19:29.368Z,55.80
2024-03-12T06:20:29.442Z,54.05
2024-03-12T06:21:33.070Z,52.22
2024-03-12T06:22:29.450Z,53.34
2024-03-12T06:23:29.466Z,52.49
2024-03-12T06:24:29.544Z,52.26
2024-03-12T06:25:29.480Z,53.01
2024-03-12T06:26:29.446Z,51.72
2024-03-12T06:27:29.476Z,52.68
2024-03-12T06:28:29.458Z,54.24
2024-03-12T06:29:29.470Z,50.00
2024-03-12T06:30:29.507Z,52.54
2024-03-12T06:31:29.472Z,52.14
2024-03-12T06:32:29.508Z,53.33
2024-03-12T06:33:29.521Z,50.94
2024-03-12T06:34:29.466Z,56.32
2024-03-12T06:35:29.480Z,55.29
2024-03-12T06:36:29.526Z,52.75
2024-03-12T06:37:29.493Z,53.70
2024-03-12T06:38:29.490Z,52.25
2024-03-12T06:39:29.538Z,52.72
2024-03-12T06:40:29.492Z,52.53
2024-03-12T06:41:29.486Z,54.14
2024-03-12T06:42:29.493Z,52.17
2024-03-12T06:43:29.501Z,50.98
2024-03-12T06:44:29.499Z,52.57
2024-03-12T06:45:29.588Z,52.60
2024-03-12T06:46:29.484Z,52.29
2024-03-12T06:47:29.592Z,51.65
2024-03-12T06:48:29.518Z,50.93
2024-03-12T06:49:29.498Z,50.83
2024-03-12T06:50:29.511Z,53.10
2024-03-12T06:51:29.588Z,52.61
2024-03-12T06:52:29.505Z,52.62
2024-03-12T06:53:29.504Z,51.38
2024-03-12T06:54:29.515Z,50.74
2024-03-12T06:55:29.497Z,50.79
2024-03-12T06:56:29.557Z,50.97
2024-03-12T06:57:29.517Z,50.82
2024-03-12T06:58:29.505Z,50.64
2024-03-12T06:59:29.523Z,52.73
2024-03-12T07:00:29.519Z,52.88
2024-03-12T07:01:29.556Z,50.94
2024-03-12T07:32:06.187Z,50.00
2024-03-12T07:33:06.312Z,50.00
2024-03-12T07:34:06.152Z,50.00
2024-03-12T07:35:06.177Z,50.00
2024-03-12T07:36:06.205Z,50.00
2024-03-12T07:37:06.312Z,46.60
2024-03-12T07:38:06.281Z,46.84
2024-03-12T07:39:06.295Z,46.13
2024-03-12T07:40:06.359Z,50.15
2024-03-12T07:41:06.420Z,49.31
2024-03-12T07:42:06.445Z,50.00
2024-03-12T07:43:06.645Z,49.39
2024-03-12T07:44:06.544Z,50.60
2024-03-12T07:45:06.615Z,52.61
2024-03-12T07:46:06.648Z,50.00
2024-03-12T07:47:06.722Z,50.00
2024-03-12T07:48:06.909Z,49.30
2024-03-12T07:49:07.833Z,51.40
2024-03-12T07:50:06.846Z,50.77
2024-03-12T07:51:06.900Z,51.51
2024-03-12T07:52:07.382Z,52.16
2024-03-12T07:53:07.076Z,49.83
2024-03-12T07:54:07.056Z,50.06
2024-03-12T07:55:07.271Z,50.38
2024-03-12T07:56:07.165Z,52.72
2024-03-12T07:57:07.251Z,50.00
2024-03-12T07:58:07.350Z,54.49
2024-03-12T07:59:07.378Z,51.92
2024-03-12T08:00:07.438Z,52.25
2024-03-12T08:01:07.607Z,50.00
2024-03-12T08:02:07.671Z,51.03
2024-03-12T08:03:07.629Z,51.46
2024-03-12T08:04:07.755Z,50.00
2024-03-12T08:05:07.816Z,50.00
2024-03-12T08:06:07.850Z,52.41
2024-03-12T08:07:07.922Z,55.04
2024-03-12T08:08:07.940Z,51.66
2024-03-12T08:09:08.005Z,50.60
2024-03-12T08:10:08.156Z,51.41
2024-03-12T08:11:08.141Z,57.09
2024-03-12T08:12:08.140Z,65.37
2024-03-12T08:13:08.203Z,61.30
2024-03-12T08:14:08.211Z,54.99
2024-03-12T08:15:08.276Z,51.81
2024-03-12T08:16:08.360Z,52.57
2024-03-12T08:17:08.346Z,57.31
2024-03-12T08:18:13.614Z,57.41
2024-03-12T08:19:09.524Z,57.50
2024-03-12T08:20:08.357Z,57.92
2024-03-12T08:21:08.363Z,58.93
2024-03-12T08:22:08.455Z,55.65
2024-03-12T08:23:08.369Z,57.49
2024-03-12T08:24:08.373Z,63.12
2024-03-12T08:25:08.437Z,61.22
2024-03-12T08:26:08.398Z,55.11
2024-03-12T08:27:08.485Z,60.41
2024-03-12T08:28:08.429Z,55.36
2024-03-12T08:29:08.387Z,51.38
2024-03-12T08:30:08.374Z,53.86
2024-03-12T08:31:14.191Z,52.33
2024-03-12T08:32:09.480Z,50.68
2024-03-12T08:33:08.390Z,52.34
2024-03-12T08:34:08.434Z,52.46
2024-03-12T08:35:09.875Z,51.66
2024-03-12T08:36:08.366Z,60.15
2024-03-12T08:37:08.473Z,50.81
2024-03-12T08:38:08.366Z,54.23
2024-03-12T08:39:08.383Z,62.76
2024-03-12T08:40:08.740Z,69.50
2024-03-12T08:41:08.385Z,78.34
2024-03-12T08:42:08.388Z,74.82
2024-03-12T08:43:09.286Z,76.15
2024-03-12T08:44:08.398Z,65.48
2024-03-12T08:45:08.378Z,47.13
2024-03-12T08:46:08.567Z,48.07
2024-03-12T08:47:08.391Z,50.19
2024-03-12T08:48:08.420Z,50.00
2024-03-12T08:49:08.405Z,50.00
2024-03-12T08:50:08.400Z,49.65
2024-03-12T08:51:08.387Z,50.00
2024-03-12T08:52:08.506Z,49.21
2024-03-12T08:53:09.771Z,50.00
2024-03-12T08:54:08.519Z,56.39
2024-03-12T08:55:08.630Z,53.04
2024-03-12T08:56:08.655Z,65.71
2024-03-12T08:57:08.659Z,73.63
2024-03-12T08:58:08.743Z,67.07
2024-03-12T08:59:08.771Z,65.28
2024-03-12T09:00:08.820Z,69.84
2024-03-12T09:01:08.862Z,78.98
2024-03-12T09:02:08.897Z,82.29
2024-03-12T09:03:08.948Z,81.44
2024-03-12T09:04:09.134Z,85.83
2024-03-12T09:05:09.003Z,90.12
2024-03-12T09:06:08.996Z,74.50
2024-03-12T09:07:09.010Z,39.32
2024-03-12T09:08:09.059Z,31.06
2024-03-12T09:09:09.103Z,34.31
2024-03-12T09:10:09.161Z,42.77
2024-03-12T09:11:09.226Z,48.57
2024-03-12T09:12:09.202Z,50.00
2024-03-12T09:13:09.291Z,50.00
2024-03-12T09:14:09.277Z,50.00
2024-03-12T09:15:09.310Z,49.83
2024-03-12T09:16:09.452Z,50.00
2024-03-12T09:17:09.398Z,50.33
2024-03-12T09:18:09.455Z,50.17
2024-03-12T09:19:09.539Z,50.00
2024-03-12T09:20:09.671Z,54.47
2024-03-12T09:21:09.585Z,49.86
2024-03-12T09:22:09.700Z,50.92
2024-03-12T09:23:09.665Z,50.41
2024-03-12T09:24:09.709Z,51.09
2024-03-12T09:25:10.102Z,52.46
2024-03-12T09:26:09.825Z,59.41
2024-03-12T09:27:09.866Z,55.41
2024-03-12T09:28:09.987Z,61.10
2024-03-12T09:29:09.968Z,68.82
2024-03-12T09:30:10.043Z,62.55
2024-03-12T09:31:10.361Z,48.78
2024-03-12T09:32:10.112Z,68.53
2024-03-12T09:33:10.274Z,61.26
2024-03-12T09:34:10.270Z,50.02
2024-03-12T09:35:10.239Z,50.00
2024-03-12T09:36:10.334Z,53.14
2024-03-12T09:37:12.028Z,53.46
2024-03-12T09:38:10.597Z,50.00
2024-03-12T09:39:10.496Z,54.63
2024-03-12T09:40:10.582Z,74.66
2024-03-12T09:41:10.486Z,104.69
2024-03-12T09:42:10.553Z,97.43
2024-03-12T09:43:10.680Z,93.35
2024-03-12T09:44:10.642Z,100.60
2024-03-12T09:45:10.714Z,99.19
2024-03-12T09:46:10.774Z,106.75
2024-03-12T09:47:10.794Z,112.39
2024-03-12T09:48:10.924Z,125.30
2024-03-12T09:49:10.983Z,133.25
2024-03-12T09:50:10.978Z,139.15
2024-03-12T09:51:10.986Z,142.28
2024-03-12T09:52:11.051Z,140.71
2024-03-12T09:53:10.976Z,137.78
2024-03-12T09:54:11.017Z,127.41
2024-03-12T09:55:11.076Z,113.20
2024-03-12T09:56:11.083Z,102.74
2024-03-12T09:57:11.116Z,99.22
2024-03-12T09:58:11.215Z,101.66
2024-03-12T09:59:11.173Z,113.82
2024-03-12T10:00:11.214Z,118.28
2024-03-12T10:01:11.301Z,127.16
2024-03-12T10:02:11.522Z,139.64
2024-03-12T10:03:11.334Z,148.43
2024-03-12T10:04:11.478Z,160.81
2024-03-12T10:05:11.562Z,167.58
2024-03-12T10:06:11.385Z,167.99
2024-03-12T10:07:11.565Z,168.40
2024-03-12T10:08:11.436Z,174.05
2024-03-12T10:09:11.506Z,180.32
2024-03-12T10:10:11.632Z,181.25
2024-03-12T10:11:11.672Z,183.21
2024-03-12T10:12:11.706Z,181.93
2024-03-12T10:13:11.790Z,178.18
2024-03-12T10:14:11.791Z,169.01
2024-03-12T10:15:11.823Z,163.77
2024-03-12T10:16:11.960Z,160.14
2024-03-12T10:17:11.937Z,161.92
2024-03-12T10:18:12.077Z,162.56
2024-03-12T10:19:12.085Z,166.18
2024-03-12T10:20:12.120Z,163.64
2024-03-12T10:21:12.159Z,149.48
2024-03-12T10:22:12.333Z,129.30
2024-03-12T10:23:12.313Z,103.16
2024-03-12T10:24:12.393Z,94.43
2024-03-12T10:25:12.450Z,81.94
2024-03-12T10:26:12.547Z,83.02
2024-03-12T10:27:12.596Z,77.41
2024-03-12T10:28:12.705Z,84.03
2024-03-12T10:29:12.705Z,88.50
2024-03-12T10:30:13.313Z,100.46
2024-03-12T10:31:13.669Z,111.39
2024-03-12T10:32:12.926Z,108.43
2024-03-12T10:33:13.030Z,96.12
2024-03-12T10:34:13.256Z,96.29
2024-03-12T10:35:13.137Z,94.34
2024-03-12T10:36:13.503Z,88.23
2024-03-12T10:37:13.378Z,73.67
2024-03-12T10:38:13.334Z,75.73
2024-03-12T10:39:13.395Z,97.87
2024-03-12T10:40:13.511Z,109.37
2024-03-12T10:41:13.516Z,105.39
2024-03-12T10:42:13.590Z,115.93
2024-03-12T10:43:13.653Z,121.26
2024-03-12T10:44:13.706Z,127.77
2024-03-12T10:45:13.764Z,107.41
2024-03-12T10:46:13.862Z,104.17
2024-03-12T10:47:13.895Z,95.60
2024-03-12T10:48:13.977Z,105.91
2024-03-12T10:49:14.601Z,116.51
2024-03-12T10:50:14.092Z,101.48
2024-03-12T10:51:14.910Z,81.21
2024-03-12T10:52:14.246Z,71.74
2024-03-12T10:53:14.145Z,70.44
2024-03-12T10:54:14.187Z,51.51
2024-03-12T10:55:14.221Z,49.24
2024-03-12T10:56:16.122Z,60.92
2024-03-12T10:57:14.272Z,74.67
2024-03-12T10:58:14.364Z,56.83
2024-03-12T10:59:14.346Z,50.00
2024-03-12T11:00:14.442Z,53.57
2024-03-12T11:01:14.414Z,47.64
2024-03-12T11:02:14.450Z,50.00
2024-03-12T11:03:14.417Z,50.86
2024-03-12T11:04:14.671Z,53.08
2024-03-12T11:05:14.443Z,55.37
2024-03-12T11:06:14.467Z,63.83
2024-03-12T11:07:14.623Z,86.48
2024-03-12T11:08:14.491Z,73.72
2024-03-12T11:09:14.512Z,79.25
2024-03-12T11:10:14.610Z,67.66
2024-03-12T11:11:14.524Z,56.87
2024-03-12T11:12:14.518Z,52.86
2024-03-12T11:13:14.621Z,69.84
2024-03-12T11:40:32.345Z,50.00
2024-03-12T11:41:32.311Z,50.00
2024-03-12T11:42:32.406Z,50.00
2024-03-12T11:43:32.394Z,50.00
2024-03-12T11:44:37.448Z,50.00
2024-03-12T11:45:32.456Z,50.00
2024-03-12T11:46:32.418Z,50.00
2024-03-12T11:47:32.644Z,50.00
2024-03-12T11:48:32.445Z,50.00
2024-03-12T11:49:32.449Z,50.00
2024-03-12T11:50:32.426Z,47.55
2024-03-12T11:51:32.440Z,50.00
2024-03-12T11:52:32.444Z,70.21
2024-03-12T11:53:32.424Z,94.78
2024-03-12T11:54:32.522Z,109.27
2024-03-12T11:55:32.471Z,119.35
2024-03-12T11:56:32.484Z,134.74
2024-03-12T11:57:32.539Z,146.82
2024-03-12T11:58:32.509Z,153.97
2024-03-12T11:59:32.529Z,155.05
2024-03-12T12:00:32.574Z,150.10
2024-03-12T12:01:33.334Z,151.21
2024-03-12T12:02:32.562Z,145.14
2024-03-12T12:03:32.615Z,151.22
2024-03-12T12:04:32.576Z,155.44
2024-03-12T12:05:32.603Z,178.99
2024-03-12T12:06:32.717Z,200.00
2024-03-12T12:07:32.723Z,212.16
2024-03-12T12:08:34.176Z,222.95
2024-03-12T12:09:32.798Z,225.36
2024-03-12T12:10:32.756Z,218.17
2024-03-12T12:11:32.780Z,214.65
2024-03-12T12:12:32.830Z,212.59
2024-03-12T12:13:32.762Z,204.66
2024-03-12T12:14:32.769Z,203.88
2024-03-12T12:15:32.870Z,199.52
2024-03-12T12:16:32.765Z,200.00
2024-03-12T12:17:32.893Z,200.26
2024-03-12T12:18:32.822Z,199.96
2024-03-12T12:19:38.435Z,200.00
2024-03-12T12:20:33.798Z,200.10
2024-03-12T12:21:32.804Z,200.66
2024-03-12T12:22:32.789Z,202.64
2024-03-12T12:23:32.791Z,204.78
2024-03-12T12:24:32.888Z,209.50
2024-03-12T12:25:32.783Z,202.42
2024-03-12T12:26:32.783Z,199.62
2024-03-12T12:27:32.797Z,200.00
2024-03-12T12:28:32.799Z,199.56
2024-03-12T12:29:32.801Z,198.96
2024-03-12T12:30:32.886Z,198.53
2024-03-12T12:31:32.886Z,198.89
2024-03-12T12:32:32.973Z,199.36
2024-03-12T12:33:33.065Z,199.20
2024-03-12T12:34:33.109Z,199.71
2024-03-12T12:35:33.168Z,200.00
2024-03-12T12:36:33.256Z,197.92
2024-03-12T12:37:33.292Z,199.73
2024-03-12T12:38:33.337Z,199.04
2024-03-12T12:39:43.580Z,199.76
2024-03-12T12:40:34.453Z,199.76
2024-03-12T12:41:33.397Z,199.93
2024-03-12T12:42:33.428Z,200.18
2024-03-12T12:43:33.409Z,200.33
2024-03-12T12:44:33.423Z,201.23
2024-03-12T12:45:33.456Z,199.14
2024-03-12T12:46:33.429Z,199.54
2024-03-12T12:47:33.479Z,199.38
2024-03-12T12:48:33.470Z,199.41
2024-03-12T12:49:33.466Z,198.89
2024-03-12T13:22:43.251Z,144.98
2024-03-12T14:20:21.807Z,45.90
2024-03-12T14:20:47.538Z,89.20
2024-03-12T14:21:47.940Z,139.88
2024-03-12T14:22:47.712Z,167.25
2024-03-12T17:06:20.811Z,50.00
2024-03-12T17:06:49.270Z,50.00
2024-03-12T19:20:05.639Z,50.00
2024-03-12T23:00:00.664Z,50.00
2024-03-12T23:25:21.376Z,50.00
